Time;durP1;ratioP1;P1;durP2;ratioP2;P2;SDS_P1;SDS_P2;PMS_P1;PMS_P2;Temp;Humidity;BMP_temperature;BMP_pressure;BME280_temperature;BME280_humidity;BME280_pressure;Samples;Min_cycle;Max_cycle;Signal;HPM_P1;HPM_P2
2022/03/03 00:02:15;;;;;;;;;;;2.00;99.90;;;;;;4946939;28;19927;-79
2022/03/03 00:04:42;;;;;;;;;;;2.00;99.90;;;;;;4936441;28;19926;-78
2022/03/03 00:07:09;;;;;;;;;;;2.00;99.90;;;;;;4951926;28;19930;-79
2022/03/03 00:09:36;;;;;;;;;;;2.00;99.90;;;;;;4955715;28;20329;-78
2022/03/03 00:12:03;;;;;;;;;;;1.90;99.90;;;;;;4953747;28;19973;-79
2022/03/03 00:14:30;;;;;;;;;;;1.90;99.90;;;;;;4952231;28;20409;-79
2022/03/03 00:16:58;;;;;;;;;;;1.90;99.90;;;;;;4936829;29;20394;-79
2022/03/03 00:19:25;;;;;;;;;;;1.90;99.90;;;;;;4953205;28;19966;-78
2022/03/03 00:21:52;;;;;;;;;;;1.90;99.90;;;;;;4952431;28;19926;-79
2022/03/03 00:24:18;;;;;;;;;;;1.90;99.90;;;;;;4952580;28;20385;-78
2022/03/03 00:26:45;;;;;;;;;;;1.90;99.90;;;;;;4950168;28;20385;-79
2022/03/03 00:29:12;;;;;;;;;;;1.80;99.90;;;;;;4944439;29;19933;-79
2022/03/03 00:31:39;;;;;;;;;;;1.80;99.90;;;;;;4951613;28;19927;-78
2022/03/03 00:34:08;;;;;;;;;;;1.80;99.90;;;;;;4951118;28;20387;-79
2022/03/03 00:36:35;;;;;;;;;;;1.80;99.90;;;;;;4953853;28;20301;-78
2022/03/03 00:39:02;;;;;;;;;;;1.80;99.90;;;;;;4951781;28;20425;-78
2022/03/03 00:41:28;;;;;;;;;;;1.80;99.90;;;;;;4946974;28;20467;-79
2022/03/03 00:43:55;;;;;;;;;;;1.80;99.90;;;;;;4951708;28;20404;-78
2022/03/03 00:46:25;;;;;;;;;;;1.80;99.90;;;;;;4937582;29;19985;-78
2022/03/03 00:48:52;;;;;;;;;;;1.70;99.90;;;;;;4952044;28;19990;-79
2022/03/03 00:51:20;;;;;;;;;;;1.70;99.90;;;;;;4930354;28;19930;-79
2022/03/03 00:53:47;;;;;;;;;;;1.80;99.90;;;;;;4953513;28;20514;-79
2022/03/03 00:56:14;;;;;;;;;;;1.70;99.90;;;;;;4954943;28;20025;-79
2022/03/03 00:58:41;;;;;;;;;;;1.70;99.90;;;;;;4952348;28;19946;-79
2022/03/03 01:01:08;;;;;;;;;;;1.70;99.90;;;;;;4951891;28;19962;-79
2022/03/03 01:03:35;;;;;;;;;;;1.70;99.90;;;;;;4949397;28;19949;-79
2022/03/03 01:06:02;;;;;;;;;;;1.70;99.90;;;;;;4952530;29;19931;-79
2022/03/03 01:08:30;;;;;;;;;;;1.70;99.90;;;;;;4940656;28;20052;-78
2022/03/03 01:10:57;;;;;;;;;;;1.70;99.90;;;;;;4949898;28;19937;-78
2022/03/03 01:13:24;;;;;;;;;;;1.60;99.90;;;;;;4948662;28;19934;-79
2022/03/03 01:15:53;;;;;;;;;;;1.60;99.90;;;;;;4935412;29;20565;-78
2022/03/03 01:18:20;;;;;;;;;;;1.60;99.90;;;;;;4951962;28;19931;-78
2022/03/03 01:20:47;;;;;;;;;;;1.60;99.90;;;;;;4937369;29;19933;-79
2022/03/03 01:23:14;;;;;;;;;;;1.60;99.90;;;;;;4951831;28;20376;-78
2022/03/03 01:25:42;;;;;;;;;;;1.60;99.90;;;;;;4935042;29;19927;-79
2022/03/03 01:28:09;;;;;;;;;;;1.60;99.90;;;;;;4950267;28;19933;-78
2022/03/03 01:30:36;;;;;;;;;;;1.60;99.90;;;;;;4950815;28;19959;-78
2022/03/03 01:33:03;;;;;;;;;;;1.60;99.90;;;;;;4956658;28;19930;-78
2022/03/03 01:35:30;;;;;;;;;;;1.60;99.90;;;;;;4939581;28;19927;-78
2022/03/03 01:37:57;;;;;;;;;;;1.50;99.90;;;;;;4952277;28;19927;-78
2022/03/03 01:40:25;;;;;;;;;;;1.50;99.90;;;;;;4939439;28;19927;-78
2022/03/03 01:42:53;;;;;;;;;;;1.50;99.90;;;;;;4952024;28;20361;-78
2022/03/03 01:45:20;;;;;;;;;;;1.50;99.90;;;;;;4952869;28;19927;-78
2022/03/03 01:47:47;;;;;;;;;;;1.50;99.90;;;;;;4950981;28;19962;-79
2022/03/03 01:50:14;;;;;;;;;;;1.40;99.90;;;;;;4953417;28;19938;-78
2022/03/03 01:52:41;;;;;;;;;;;1.40;99.90;;;;;;4951008;28;20048;-78
2022/03/03 01:55:09;;;;;;;;;;;1.40;99.90;;;;;;4953928;28;20392;-79
2022/03/03 01:57:36;;;;;;;;;;;1.40;99.90;;;;;;4935758;28;19942;-78
2022/03/03 02:00:06;;;;;;;;;;;1.40;99.90;;;;;;4951910;28;19927;-78
2022/03/03 02:02:39;;;;;;;;;;;1.40;99.90;;;;;;4950880;28;20021;-78
2022/03/03 02:05:07;;;;;;;;;;;1.40;99.90;;;;;;4933658;29;20658;-78
2022/03/03 02:07:34;;;;;;;;;;;1.40;99.90;;;;;;4951528;28;19973;-78
2022/03/03 02:10:01;;;;;;;;;;;1.40;99.90;;;;;;4951088;28;20026;-79
2022/03/03 02:12:28;;;;;;;;;;;1.30;99.90;;;;;;4957782;28;20397;-78
2022/03/03 02:14:55;;;;;;;;;;;1.30;99.90;;;;;;4951158;28;20460;-78
2022/03/03 02:17:24;;;;;;;;;;;1.30;99.90;;;;;;4954406;28;19930;-78
2022/03/03 02:19:50;;;;;;;;;;;1.30;99.90;;;;;;4954488;28;19927;-78
2022/03/03 02:22:19;;;;;;;;;;;1.40;99.90;;;;;;4954634;28;20009;-78
2022/03/03 02:24:46;;;;;;;;;;;1.30;99.90;;;;;;4954380;28;19962;-78
2022/03/03 02:27:13;;;;;;;;;;;1.30;99.90;;;;;;4953975;28;19935;-78
2022/03/03 02:29:40;;;;;;;;;;;1.30;99.90;;;;;;4954080;28;20389;-78
2022/03/03 02:32:08;;;;;;;;;;;1.30;99.90;;;;;;4937683;28;20389;-78
2022/03/03 02:34:35;;;;;;;;;;;1.30;99.90;;;;;;4954178;28;19926;-78
2022/03/03 02:37:02;;;;;;;;;;;1.30;99.90;;;;;;4941024;29;20342;-78
2022/03/03 02:39:30;;;;;;;;;;;1.30;99.90;;;;;;4951818;28;19981;-78
2022/03/03 02:41:57;;;;;;;;;;;1.20;99.90;;;;;;4953342;28;20361;-78
2022/03/03 02:44:24;;;;;;;;;;;1.20;99.90;;;;;;4957275;28;19934;-78
2022/03/03 02:46:53;;;;;;;;;;;1.20;99.90;;;;;;4948137;29;19927;-79
2022/03/03 02:49:20;;;;;;;;;;;1.20;99.90;;;;;;4949525;28;19934;-78
2022/03/03 02:51:47;;;;;;;;;;;1.20;99.90;;;;;;4953820;28;19949;-78
2022/03/03 02:54:14;;;;;;;;;;;1.20;99.90;;;;;;4940334;29;20018;-78
2022/03/03 02:59:26;;;;;;;;;;;1.20;99.90;;;;;;4937676;29;20413;-78
2022/03/03 03:01:53;;;;;;;;;;;1.20;99.90;;;;;;4955774;28;19976;-78
2022/03/03 03:04:20;;;;;;;;;;;1.20;99.90;;;;;;4943643;29;19937;-78
2022/03/03 03:06:47;;;;;;;;;;;1.20;99.90;;;;;;4954094;28;19954;-78
2022/03/03 03:09:14;;;;;;;;;;;1.20;99.90;;;;;;4945217;29;19971;-78
2022/03/03 03:11:42;;;;;;;;;;;1.20;99.90;;;;;;4958184;28;19926;-78
2022/03/03 03:14:09;;;;;;;;;;;1.20;99.90;;;;;;4956407;28;19926;-78
2022/03/03 03:16:36;;;;;;;;;;;1.20;99.90;;;;;;4946123;29;19930;-78
2022/03/03 03:19:03;;;;;;;;;;;1.20;99.90;;;;;;4953456;28;19950;-77
2022/03/03 03:21:30;;;;;;;;;;;1.10;99.90;;;;;;4951682;28;19926;-78
2022/03/03 03:23:57;;;;;;;;;;;1.20;99.90;;;;;;4953667;28;19935;-78
2022/03/03 03:26:24;;;;;;;;;;;1.10;99.90;;;;;;4941186;28;19937;-77
2022/03/03 03:28:53;;;;;;;;;;;1.10;99.90;;;;;;4953367;28;19981;-78
2022/03/03 03:31:19;;;;;;;;;;;1.10;99.90;;;;;;4948878;28;21530;-78
2022/03/03 03:33:46;;;;;;;;;;;1.10;99.90;;;;;;4953376;28;19985;-78
2022/03/03 03:36:13;;;;;;;;;;;1.10;99.90;;;;;;4951833;28;20395;-78
2022/03/03 03:38:40;;;;;;;;;;;1.10;99.90;;;;;;4956710;28;20419;-78
2022/03/03 03:41:07;;;;;;;;;;;1.10;99.90;;;;;;4954365;28;20314;-78
2022/03/03 03:43:34;;;;;;;;;;;1.10;99.90;;;;;;4949442;28;19930;-78
2022/03/03 03:46:02;;;;;;;;;;;1.00;99.90;;;;;;4952799;28;19937;-78
2022/03/03 03:48:29;;;;;;;;;;;1.10;99.90;;;;;;4945853;29;19933;-78
2022/03/03 03:50:56;;;;;;;;;;;1.10;99.90;;;;;;4955921;28;20013;-78
2022/03/03 03:53:24;;;;;;;;;;;1.00;99.90;;;;;;4954026;28;19938;-78
2022/03/03 03:55:51;;;;;;;;;;;1.00;99.90;;;;;;4952727;28;19926;-78
2022/03/03 03:58:18;;;;;;;;;;;1.10;99.90;;;;;;4956182;28;20344;-78
2022/03/03 04:00:45;;;;;;;;;;;1.00;99.90;;;;;;4941734;29;20325;-78
2022/03/03 04:03:13;;;;;;;;;;;1.00;99.90;;;;;;4952229;28;19954;-78
2022/03/03 04:05:40;;;;;;;;;;;1.00;99.90;;;;;;4953206;28;19933;-78
2022/03/03 04:08:07;;;;;;;;;;;1.00;99.90;;;;;;4950985;28;20361;-78
2022/03/03 04:10:34;;;;;;;;;;;0.90;99.90;;;;;;4950835;28;19926;-78
2022/03/03 04:13:00;;;;;;;;;;;0.90;99.90;;;;;;4955598;28;19926;-77
2022/03/03 04:15:27;;;;;;;;;;;0.90;99.90;;;;;;4952867;28;20444;-78
2022/03/03 04:17:54;;;;;;;;;;;0.90;99.90;;;;;;4951944;28;19939;-78
2022/03/03 04:20:23;;;;;;;;;;;0.90;99.90;;;;;;4952612;28;19936;-78
2022/03/03 04:22:50;;;;;;;;;;;0.90;99.90;;;;;;4952541;28;19935;-78
2022/03/03 04:25:17;;;;;;;;;;;0.90;99.90;;;;;;4953286;28;19926;-78
2022/03/03 04:27:44;;;;;;;;;;;0.90;99.90;;;;;;4951228;28;20317;-78
2022/03/03 04:30:11;;;;;;;;;;;0.90;99.90;;;;;;4951008;28;19927;-78
2022/03/03 04:32:38;;;;;;;;;;;0.90;99.90;;;;;;4952069;28;19931;-78
2022/03/03 04:35:05;;;;;;;;;;;0.90;99.90;;;;;;4951461;28;19934;-77
2022/03/03 04:37:34;;;;;;;;;;;0.80;99.90;;;;;;4952100;28;20357;-78
2022/03/03 04:40:01;;;;;;;;;;;0.90;99.90;;;;;;4934567;29;19930;-78
2022/03/03 04:42:28;;;;;;;;;;;0.90;99.90;;;;;;4951572;28;20405;-77
2022/03/03 04:44:55;;;;;;;;;;;0.80;99.90;;;;;;4956807;28;19937;-78
2022/03/03 04:47:22;;;;;;;;;;;0.80;99.90;;;;;;4950833;28;20377;-78
2022/03/03 04:49:49;;;;;;;;;;;0.80;99.90;;;;;;4950781;28;19934;-78
2022/03/03 04:52:15;;;;;;;;;;;0.80;99.90;;;;;;4952373;29;19933;-78
2022/03/03 04:54:44;;;;;;;;;;;0.80;99.90;;;;;;4957390;28;19926;-78
2022/03/03 04:57:11;;;;;;;;;;;0.80;99.90;;;;;;4950702;29;20025;-78
2022/03/03 04:59:38;;;;;;;;;;;0.80;99.90;;;;;;4953332;28;20453;-78
2022/03/03 05:02:06;;;;;;;;;;;0.80;99.90;;;;;;4944601;29;19931;-78
2022/03/03 05:04:33;;;;;;;;;;;0.80;99.90;;;;;;4955485;28;20369;-78
2022/03/03 05:07:00;;;;;;;;;;;0.70;99.90;;;;;;4950662;28;19936;-78
2022/03/03 05:09:27;;;;;;;;;;;0.70;99.90;;;;;;4943801;28;19926;-78
2022/03/03 05:11:57;;;;;;;;;;;0.70;99.90;;;;;;4947208;28;20576;-78
2022/03/03 05:14:24;;;;;;;;;;;0.70;99.90;;;;;;4952211;28;19927;-77
2022/03/03 05:16:51;;;;;;;;;;;0.70;99.90;;;;;;4949918;28;19926;-78
2022/03/03 05:19:18;;;;;;;;;;;0.70;99.90;;;;;;4953048;28;20017;-78
2022/03/03 05:21:45;;;;;;;;;;;0.70;99.90;;;;;;4951264;28;19958;-78
2022/03/03 05:24:12;;;;;;;;;;;0.70;99.90;;;;;;4938427;29;19993;-78
2022/03/03 05:26:38;;;;;;;;;;;0.70;99.90;;;;;;4952682;28;19934;-77
2022/03/03 05:29:07;;;;;;;;;;;0.60;99.90;;;;;;4952903;28;19930;-78
2022/03/03 05:31:34;;;;;;;;;;;0.60;99.90;;;;;;4951273;28;19927;-78
2022/03/03 05:34:03;;;;;;;;;;;0.60;99.90;;;;;;4933447;28;20033;-78
2022/03/03 05:36:30;;;;;;;;;;;0.60;99.90;;;;;;4939314;29;19926;-77
2022/03/03 05:38:58;;;;;;;;;;;0.60;99.90;;;;;;4951764;28;19926;-78
2022/03/03 05:41:24;;;;;;;;;;;0.60;99.90;;;;;;4953913;28;19931;-78
2022/03/03 05:43:52;;;;;;;;;;;0.50;99.90;;;;;;4949382;28;20298;-78
2022/03/03 05:46:20;;;;;;;;;;;0.50;99.90;;;;;;4936763;29;19993;-77
2022/03/03 05:48:48;;;;;;;;;;;0.50;99.90;;;;;;4950333;28;19933;-78
2022/03/03 05:51:15;;;;;;;;;;;0.50;99.90;;;;;;4960845;28;20031;-78
2022/03/03 05:53:42;;;;;;;;;;;0.50;99.90;;;;;;4948362;28;20300;-78
2022/03/03 05:56:10;;;;;;;;;;;0.50;99.90;;;;;;4954975;29;19931;-78
2022/03/03 05:58:40;;;;;;;;;;;0.50;99.90;;;;;;4955125;28;20522;-78
2022/03/03 06:01:09;;;;;;;;;;;0.50;99.90;;;;;;4939073;29;19934;-78
2022/03/03 06:03:38;;;;;;;;;;;0.40;99.90;;;;;;4952811;28;20017;-78
2022/03/03 06:06:07;;;;;;;;;;;0.40;99.90;;;;;;4955189;28;19957;-78
2022/03/03 06:08:39;;;;;;;;;;;0.40;99.90;;;;;;4955705;28;19990;-77
2022/03/03 06:11:10;;;;;;;;;;;0.40;99.90;;;;;;4955036;28;19927;-77
2022/03/03 06:13:39;;;;;;;;;;;0.40;99.90;;;;;;4954895;28;19957;-77
2022/03/03 06:16:06;;;;;;;;;;;0.40;99.90;;;;;;4936836;29;19927;-76
2022/03/03 06:18:33;;;;;;;;;;;0.40;99.90;;;;;;4958494;28;19934;-77
2022/03/03 06:21:02;;;;;;;;;;;0.30;99.90;;;;;;4949350;28;19934;-77
2022/03/03 06:23:30;;;;;;;;;;;0.30;99.90;;;;;;4928829;28;20317;-77
2022/03/03 06:25:59;;;;;;;;;;;0.30;99.90;;;;;;4954591;28;19926;-77
2022/03/03 06:28:26;;;;;;;;;;;0.30;99.90;;;;;;4952604;28;19939;-77
2022/03/03 06:30:52;;;;;;;;;;;0.20;99.90;;;;;;4952890;29;19926;-77
2022/03/03 06:33:19;;;;;;;;;;;0.20;99.90;;;;;;4948170;28;19930;-76
2022/03/03 06:35:46;;;;;;;;;;;0.20;99.90;;;;;;4951128;28;19936;-77
2022/03/03 06:38:15;;;;;;;;;;;0.20;99.90;;;;;;4951419;28;19941;-77
2022/03/03 06:40:42;;;;;;;;;;;0.20;99.90;;;;;;4949105;28;19949;-77
2022/03/03 06:43:09;;;;;;;;;;;0.20;99.90;;;;;;4949014;28;20414;-76
2022/03/03 06:45:36;;;;;;;;;;;0.20;99.90;;;;;;4951594;28;19933;-77
2022/03/03 06:48:04;;;;;;;;;;;0.20;99.90;;;;;;4934635;28;19926;-76
2022/03/03 06:50:35;;;;;;;;;;;0.10;99.90;;;;;;4948288;28;19927;-77
2022/03/03 06:53:03;;;;;;;;;;;0.10;99.90;;;;;;4948800;28;19926;-77
2022/03/03 06:55:31;;;;;;;;;;;0.10;99.90;;;;;;4950697;28;20025;-77
2022/03/03 06:57:59;;;;;;;;;;;0.10;99.90;;;;;;4949011;28;20034;-77
2022/03/03 07:00:26;;;;;;;;;;;0.10;99.90;;;;;;4944416;28;20407;-78
2022/03/03 07:02:53;;;;;;;;;;;0.10;99.90;;;;;;4949220;28;19930;-77
2022/03/03 07:05:21;;;;;;;;;;;0.10;99.90;;;;;;4952658;28;19938;-78
2022/03/03 07:07:49;;;;;;;;;;;0.10;99.90;;;;;;4950159;28;19977;-77
2022/03/03 07:10:23;;;;;;;;;;;0.10;99.90;;;;;;4947600;28;20412;-77
2022/03/03 07:12:51;;;;;;;;;;;0.00;99.90;;;;;;4949716;28;19934;-78
2022/03/03 07:15:18;;;;;;;;;;;0.10;99.90;;;;;;4950001;28;20944;-77
2022/03/03 07:17:47;;;;;;;;;;;0.00;99.90;;;;;;4948856;28;20569;-77
2022/03/03 07:20:16;;;;;;;;;;;0.00;99.90;;;;;;4949167;28;19934;-78
2022/03/03 07:22:47;;;;;;;;;;;0.00;99.90;;;;;;4932222;29;19942;-77
2022/03/03 07:25:15;;;;;;;;;;;0.10;99.90;;;;;;4948551;28;19934;-79
2022/03/03 07:27:43;;;;;;;;;;;0.00;99.90;;;;;;4931856;29;19937;-78
2022/03/03 07:30:13;;;;;;;;;;;0.00;99.90;;;;;;4949994;28;19982;-78
2022/03/03 07:32:44;;;;;;;;;;;0.00;99.90;;;;;;4949723;28;20444;-77
2022/03/03 07:35:12;;;;;;;;;;;0.00;99.90;;;;;;4948106;28;19933;-77
2022/03/03 07:37:41;;;;;;;;;;;0.00;99.90;;;;;;4932303;28;19930;-78
2022/03/03 07:40:08;;;;;;;;;;;0.00;99.90;;;;;;4946426;28;19970;-78
2022/03/03 07:42:36;;;;;;;;;;;0.00;99.90;;;;;;4945855;28;19935;-80
2022/03/03 07:45:04;;;;;;;;;;;0.10;99.90;;;;;;4946219;28;19937;-79
2022/03/03 07:47:32;;;;;;;;;;;0.10;99.90;;;;;;4933266;28;19996;-79
2022/03/03 07:50:00;;;;;;;;;;;0.10;99.90;;;;;;4934586;28;19926;-78
2022/03/03 07:52:28;;;;;;;;;;;0.10;99.90;;;;;;4945673;28;19934;-78
2022/03/03 07:54:56;;;;;;;;;;;0.00;99.90;;;;;;4948485;28;19998;-78
2022/03/03 07:57:25;;;;;;;;;;;0.00;99.90;;;;;;4948368;28;19938;-79
2022/03/03 07:59:58;;;;;;;;;;;0.10;99.90;;;;;;4947877;28;19934;-79
2022/03/03 08:02:25;;;;;;;;;;;0.00;99.90;;;;;;4941373;28;20448;-77
2022/03/03 08:04:53;;;;;;;;;;;0.00;99.90;;;;;;4944559;28;19930;-78
2022/03/03 08:07:20;;;;;;;;;;;0.10;99.90;;;;;;4945615;28;20415;-78
2022/03/03 08:09:47;;;;;;;;;;;0.00;99.90;;;;;;4928656;28;19931;-78
2022/03/03 08:12:15;;;;;;;;;;;0.10;99.90;;;;;;4943761;28;19997;-78
2022/03/03 08:14:42;;;;;;;;;;;0.10;99.90;;;;;;4942355;28;19937;-78
2022/03/03 08:17:13;;;;;;;;;;;0.20;99.90;;;;;;4928578;28;19927;-77
2022/03/03 08:19:40;;;;;;;;;;;0.20;99.90;;;;;;4944573;28;19926;-78
2022/03/03 08:22:09;;;;;;;;;;;0.20;99.90;;;;;;4928248;28;20369;-76
2022/03/03 08:24:36;;;;;;;;;;;0.20;99.90;;;;;;4926532;28;19927;-77
2022/03/03 08:27:04;;;;;;;;;;;0.20;99.90;;;;;;4947161;28;20030;-77
2022/03/03 08:29:31;;;;;;;;;;;0.20;99.90;;;;;;4947566;28;20813;-78
2022/03/03 08:31:58;;;;;;;;;;;0.20;99.90;;;;;;4946310;28;20397;-77
2022/03/03 08:34:34;;;;;;;;;;;0.20;99.90;;;;;;4957734;28;19931;-77
2022/03/03 08:37:03;;;;;;;;;;;0.20;99.90;;;;;;4966901;28;20586;-77
2022/03/03 08:39:37;;;;;;;;;;;0.20;99.90;;;;;;4954292;28;19981;-77
2022/03/03 08:42:06;;;;;;;;;;;0.20;99.90;;;;;;4945038;28;20021;-77
2022/03/03 08:44:34;;;;;;;;;;;0.30;99.90;;;;;;4946056;28;19935;-78
2022/03/03 08:47:02;;;;;;;;;;;0.30;99.90;;;;;;4943127;28;19933;-77
2022/03/03 08:49:33;;;;;;;;;;;0.20;99.90;;;;;;4945795;28;20005;-78
2022/03/03 08:52:00;;;;;;;;;;;0.30;99.90;;;;;;4943167;28;19926;-78
2022/03/03 08:54:28;;;;;;;;;;;0.40;99.90;;;;;;4934565;28;19981;-77
2022/03/03 08:56:57;;;;;;;;;;;0.40;99.90;;;;;;4946033;28;19935;-78
2022/03/03 08:59:24;;;;;;;;;;;0.40;99.90;;;;;;4941532;28;20013;-78
2022/03/03 09:01:51;;;;;;;;;;;0.40;99.90;;;;;;4938814;28;19961;-78
2022/03/03 09:04:19;;;;;;;;;;;0.30;99.90;;;;;;4940709;28;19982;-78
2022/03/03 09:06:46;;;;;;;;;;;0.30;99.90;;;;;;4934615;28;19963;-78
2022/03/03 09:09:13;;;;;;;;;;;0.50;99.90;;;;;;4933290;28;19989;-78
2022/03/03 09:11:40;;;;;;;;;;;0.60;99.90;;;;;;4931959;28;19938;-77
2022/03/03 09:14:10;;;;;;;;;;;0.70;99.90;;;;;;4938625;28;19925;-78
2022/03/03 09:16:37;;;;;;;;;;;0.70;99.90;;;;;;4919161;28;19927;-78
2022/03/03 09:19:04;;;;;;;;;;;0.70;99.90;;;;;;4925368;28;19941;-78
2022/03/03 09:21:32;;;;;;;;;;;0.80;99.90;;;;;;4937397;28;19942;-77
2022/03/03 09:23:59;;;;;;;;;;;0.90;99.90;;;;;;4924523;28;19931;-76
2022/03/03 09:26:27;;;;;;;;;;;0.90;99.90;;;;;;4944488;28;19939;-78
2022/03/03 09:28:54;;;;;;;;;;;0.80;99.90;;;;;;4929251;28;19997;-78
2022/03/03 09:31:23;;;;;;;;;;;0.70;99.90;;;;;;4949977;28;19927;-77
2022/03/03 09:33:50;;;;;;;;;;;0.70;99.90;;;;;;4948312;28;19926;-77
2022/03/03 09:36:18;;;;;;;;;;;0.70;99.90;;;;;;4950535;28;19927;-78
2022/03/03 09:38:45;;;;;;;;;;;0.60;99.90;;;;;;4949229;28;19938;-77
2022/03/03 09:41:12;;;;;;;;;;;0.60;99.90;;;;;;4949209;28;19993;-78
2022/03/03 09:43:40;;;;;;;;;;;0.60;99.90;;;;;;4947388;28;19934;-77
2022/03/03 09:46:07;;;;;;;;;;;0.60;99.90;;;;;;4932529;28;19930;-77
2022/03/03 09:48:35;;;;;;;;;;;0.60;99.90;;;;;;4948874;28;20307;-78
2022/03/03 09:51:02;;;;;;;;;;;0.70;99.90;;;;;;4944217;28;19931;-77
2022/03/03 09:53:29;;;;;;;;;;;0.70;99.90;;;;;;4948261;28;19934;-77
2022/03/03 09:55:56;;;;;;;;;;;0.70;99.90;;;;;;4947671;28;19934;-77
2022/03/03 09:58:23;;;;;;;;;;;0.70;99.90;;;;;;4947302;28;19938;-76
2022/03/03 10:00:50;;;;;;;;;;;0.70;99.90;;;;;;4947931;28;20415;-77
2022/03/03 10:03:18;;;;;;;;;;;0.70;99.90;;;;;;4930071;28;20368;-78
2022/03/03 10:05:48;;;;;;;;;;;0.70;99.90;;;;;;4940042;28;19962;-77
2022/03/03 10:08:16;;;;;;;;;;;0.70;99.90;;;;;;4949872;28;19926;-77
2022/03/03 10:10:44;;;;;;;;;;;0.70;99.90;;;;;;4931391;29;20290;-77
2022/03/03 10:13:14;;;;;;;;;;;0.70;99.90;;;;;;4951264;28;19934;-77
2022/03/03 10:15:41;;;;;;;;;;;0.70;99.90;;;;;;4943048;28;19941;-77
2022/03/03 10:18:11;;;;;;;;;;;0.80;99.90;;;;;;4939093;28;20419;-78
2022/03/03 10:20:39;;;;;;;;;;;0.80;99.90;;;;;;4940612;28;19927;-78
2022/03/03 10:23:09;;;;;;;;;;;0.80;99.90;;;;;;4927879;28;19934;-77
2022/03/03 10:25:37;;;;;;;;;;;0.80;99.90;;;;;;4947748;28;20072;-77
2022/03/03 10:28:11;;;;;;;;;;;0.80;99.90;;;;;;4940672;28;20297;-78
2022/03/03 10:30:48;;;;;;;;;;;0.80;99.90;;;;;;4942627;28;19934;-78
2022/03/03 10:33:15;;;;;;;;;;;0.90;99.90;;;;;;4942677;28;19935;-77
2022/03/03 10:35:43;;;;;;;;;;;0.90;99.90;;;;;;4938463;28;19934;-78
2022/03/03 10:38:11;;;;;;;;;;;0.90;99.90;;;;;;4942906;28;19930;-77
2022/03/03 10:40:39;;;;;;;;;;;1.20;99.90;;;;;;4947781;28;19945;-78
2022/03/03 10:43:06;;;;;;;;;;;1.30;99.90;;;;;;4945578;28;19950;-78
2022/03/03 10:45:35;;;;;;;;;;;1.40;99.90;;;;;;4944733;28;19939;-78
2022/03/03 10:48:03;;;;;;;;;;;1.40;99.90;;;;;;4948678;28;19967;-78
2022/03/03 10:50:44;;;;;;;;;;;1.30;99.90;;;;;;4944829;28;19931;-78
2022/03/03 10:53:13;;;;;;;;;;;1.30;99.90;;;;;;4943899;28;20013;-80
2022/03/03 10:55:40;;;;;;;;;;;1.30;99.90;;;;;;4941972;28;19930;-78
2022/03/03 10:58:07;;;;;;;;;;;1.30;99.90;;;;;;4941182;28;19930;-78
2022/03/03 11:00:36;;;;;;;;;;;1.30;99.90;;;;;;4940863;28;21578;-79
2022/03/03 11:03:04;;;;;;;;;;;1.30;99.90;;;;;;4940209;28;19957;-79
2022/03/03 11:05:31;;;;;;;;;;;1.40;99.90;;;;;;4941758;28;19935;-80
2022/03/03 11:07:59;;;;;;;;;;;1.40;99.90;;;;;;4946514;28;19926;-78
2022/03/03 11:10:29;;;;;;;;;;;1.40;99.90;;;;;;4944711;28;19931;-79
2022/03/03 11:12:56;;;;;;;;;;;1.40;99.90;;;;;;4949250;28;19940;-77
2022/03/03 11:15:24;;;;;;;;;;;1.40;99.90;;;;;;4945659;28;19941;-78
2022/03/03 11:17:52;;;;;;;;;;;1.40;99.90;;;;;;4929335;28;19934;-77
2022/03/03 11:20:19;;;;;;;;;;;1.40;99.90;;;;;;4929932;28;19964;-79
2022/03/03 11:22:47;;;;;;;;;;;1.50;99.90;;;;;;4950108;28;19981;-78
2022/03/03 11:25:17;;;;;;;;;;;1.50;99.90;;;;;;4947819;28;19937;-79
2022/03/03 11:27:45;;;;;;;;;;;1.50;99.90;;;;;;4942688;28;19949;-78
2022/03/03 11:30:14;;;;;;;;;;;1.50;99.90;;;;;;4932373;29;19933;-79
2022/03/03 11:32:41;;;;;;;;;;;1.60;99.90;;;;;;4926595;28;20021;-79
2022/03/03 11:35:09;;;;;;;;;;;1.60;99.90;;;;;;4936181;28;19930;-78
2022/03/03 11:37:39;;;;;;;;;;;1.60;99.90;;;;;;4936212;28;19930;-78
2022/03/03 11:40:07;;;;;;;;;;;1.60;99.90;;;;;;4942423;28;19953;-77
2022/03/03 11:42:36;;;;;;;;;;;1.70;99.90;;;;;;4941314;28;20013;-78
2022/03/03 11:45:19;;;;;;;;;;;1.70;99.90;;;;;;4928467;28;19941;-78
2022/03/03 11:47:48;;;;;;;;;;;1.70;99.90;;;;;;4936544;28;19927;-77
2022/03/03 11:50:22;;;;;;;;;;;1.70;99.90;;;;;;4942868;28;19934;-77
2022/03/03 11:52:52;;;;;;;;;;;1.80;99.90;;;;;;4935632;28;19930;-78
2022/03/03 11:55:30;;;;;;;;;;;1.80;99.90;;;;;;4941054;28;19938;-78
2022/03/03 11:58:02;;;;;;;;;;;1.80;99.90;;;;;;4942645;28;20025;-78
2022/03/03 12:00:30;;;;;;;;;;;1.90;99.90;;;;;;4946658;28;20065;-78
2022/03/03 12:03:00;;;;;;;;;;;1.90;99.90;;;;;;4942850;28;19942;-78
2022/03/03 12:05:31;;;;;;;;;;;1.90;99.90;;;;;;4943540;28;19926;-78
2022/03/03 12:07:59;;;;;;;;;;;1.90;99.90;;;;;;4927890;29;19941;-77
2022/03/03 12:10:26;;;;;;;;;;;2.00;99.90;;;;;;4930638;29;19955;-79
2022/03/03 12:12:53;;;;;;;;;;;2.00;99.90;;;;;;4942598;28;20333;-79
2022/03/03 12:15:20;;;;;;;;;;;2.00;99.90;;;;;;4943169;28;20381;-79
2022/03/03 12:17:56;;;;;;;;;;;2.70;99.90;;;;;;4944813;28;19931;-79
2022/03/03 12:20:34;;;;;;;;;;;3.00;99.90;;;;;;4945528;28;21912;-78
2022/03/03 12:23:05;;;;;;;;;;;3.30;99.90;;;;;;4942832;28;19939;-79
2022/03/03 12:25:50;;;;;;;;;;;3.40;99.90;;;;;;4941773;28;19935;-79
2022/03/03 12:28:18;;;;;;;;;;;3.90;99.90;;;;;;4942887;28;21317;-79
2022/03/03 12:30:45;;;;;;;;;;;3.90;99.90;;;;;;4939061;28;19941;-79
2022/03/03 12:33:22;;;;;;;;;;;3.70;99.90;;;;;;4950199;28;20402;-79
2022/03/03 12:35:49;;;;;;;;;;;3.50;99.90;;;;;;4948471;28;19930;-80
2022/03/03 12:38:16;;;;;;;;;;;3.30;99.90;;;;;;4943430;28;19931;-79
2022/03/03 12:40:43;;;;;;;;;;;3.20;99.90;;;;;;4954409;28;19930;-80
2022/03/03 12:43:11;;;;;;;;;;;3.20;99.90;;;;;;4952940;28;19926;-79
2022/03/03 12:45:39;;;;;;;;;;;3.20;99.90;;;;;;4950888;28;19946;-80
2022/03/03 12:48:07;;;;;;;;;;;3.20;99.90;;;;;;4936374;29;19977;-79
2022/03/03 12:50:35;;;;;;;;;;;3.20;99.90;;;;;;4945787;28;19950;-79
2022/03/03 12:53:04;;;;;;;;;;;3.10;99.90;;;;;;4947344;28;19934;-79
2022/03/03 12:55:33;;;;;;;;;;;3.10;99.90;;;;;;4945006;28;19927;-79
2022/03/03 12:58:00;;;;;;;;;;;3.20;99.90;;;;;;4936436;28;19926;-79
2022/03/03 13:00:28;;;;;;;;;;;3.20;99.90;;;;;;4947761;28;19930;-79
2022/03/03 13:02:56;;;;;;;;;;;3.20;99.90;;;;;;4946320;28;19933;-79
2022/03/03 13:05:46;;;;;;;;;;;3.30;99.90;;;;;;4944628;28;19930;-79
2022/03/03 13:08:30;;;;;;;;;;;3.30;99.90;;;;;;4941146;29;19930;-79
2022/03/03 13:10:59;;;;;;;;;;;3.40;99.90;;;;;;4932045;28;19933;-79
2022/03/03 13:13:26;;;;;;;;;;;3.40;99.90;;;;;;4949496;28;20007;-79
2022/03/03 13:15:53;;;;;;;;;;;3.40;99.90;;;;;;4945278;28;19927;-79
2022/03/03 13:18:21;;;;;;;;;;;3.50;99.90;;;;;;4948496;28;19962;-79
2022/03/03 13:20:54;;;;;;;;;;;3.50;99.90;;;;;;4945382;28;19927;-79
2022/03/03 13:23:21;;;;;;;;;;;3.60;99.90;;;;;;4944687;28;19926;-79
2022/03/03 13:26:02;;;;;;;;;;;3.60;99.90;;;;;;4935221;29;19993;-79
2022/03/03 13:28:30;;;;;;;;;;;3.60;99.90;;;;;;4947768;28;20528;-79
2022/03/03 13:31:02;;;;;;;;;;;3.70;99.90;;;;;;4931457;28;19937;-79
2022/03/03 13:33:47;;;;;;;;;;;3.70;99.90;;;;;;4955070;28;20374;-79
2022/03/03 13:36:15;;;;;;;;;;;3.80;99.90;;;;;;4956977;28;19941;-81
2022/03/03 13:38:42;;;;;;;;;;;3.80;99.90;;;;;;4954082;28;19933;-79
2022/03/03 13:41:24;;;;;;;;;;;3.80;99.90;;;;;;4954410;28;20019;-80
2022/03/03 13:44:08;;;;;;;;;;;3.90;99.90;;;;;;4950751;28;19927;-80
2022/03/03 13:46:36;;;;;;;;;;;3.90;99.90;;;;;;4956970;28;20326;-80
2022/03/03 13:49:03;;;;;;;;;;;4.00;99.90;;;;;;4956134;28;20025;-80
2022/03/03 13:51:30;;;;;;;;;;;4.00;99.90;;;;;;4956071;28;19930;-80
2022/03/03 13:53:58;;;;;;;;;;;4.00;99.90;;;;;;4953699;28;19930;-80
2022/03/03 13:56:28;;;;;;;;;;;4.00;99.90;;;;;;4957833;28;19930;-80
2022/03/03 13:59:06;;;;;;;;;;;4.10;99.90;;;;;;4957702;28;20305;-79
2022/03/03 14:01:34;;;;;;;;;;;4.20;99.90;;;;;;4952688;28;20061;-80
2022/03/03 14:04:11;;;;;;;;;;;4.20;99.90;;;;;;4952445;28;20021;-79
2022/03/03 14:06:42;;;;;;;;;;;4.20;99.90;;;;;;4951375;28;19934;-80
2022/03/03 14:09:09;;;;;;;;;;;4.20;99.90;;;;;;4961405;28;19926;-82
2022/03/03 14:11:39;;;;;;;;;;;4.30;99.90;;;;;;4972926;28;19973;-80
2022/03/03 14:14:19;;;;;;;;;;;4.40;99.90;;;;;;4967962;29;19927;-81
2022/03/03 14:16:50;;;;;;;;;;;4.40;99.90;;;;;;4967182;29;20017;-80
2022/03/03 14:19:20;;;;;;;;;;;4.40;99.90;;;;;;4966429;29;19973;-80
2022/03/03 14:21:53;;;;;;;;;;;4.50;99.90;;;;;;4974542;29;19922;-80
2022/03/03 14:24:22;;;;;;;;;;;4.50;99.90;;;;;;4976291;29;19926;-79
2022/03/03 14:26:53;;;;;;;;;;;4.50;99.90;;;;;;4977242;28;19926;-80
2022/03/03 14:29:25;;;;;;;;;;;4.60;99.90;;;;;;4974425;29;19930;-81
2022/03/03 14:31:52;;;;;;;;;;;4.60;99.90;;;;;;4959088;28;19942;-80
2022/03/03 14:34:20;;;;;;;;;;;4.60;99.90;;;;;;4956049;28;19926;-79
2022/03/03 14:36:47;;;;;;;;;;;4.70;99.90;;;;;;4938792;29;20278;-79
2022/03/03 14:39:14;;;;;;;;;;;4.70;99.90;;;;;;4952220;28;19941;-80
2022/03/03 14:41:42;;;;;;;;;;;4.70;99.90;;;;;;4954737;28;19937;-79